x

Point Arguello, Ca (ptgc1) Weather Station

12:00 - Tue 22nd Aug 2017 All times are PDT. -7 hours from GMT.

  • Wind
    15mph, 17mph gusts
  • Air Temp 63°f
  • Sea Pressure 1015.8mb
  • Point Arguello, Ca
  • Point Arguello, Ca

More Historic Weather Station data

Upgrade to MSW Pro to gain access to the past 30 days of data for over 8000 Wavebouys and Weather Stations around the globe.

Join

Comparision Forecast

View Surf forecast
   
mar. 08/22 12:00 15 17 mph 1015.8mb 63f
lun. 08/21 11:00 15 17 mph 1015.9mb 63f
10:00 13 14 mph 1016.2mb 63f
9:00 10 13 mph 1016mb 63f
8:00 10 11 mph 1015.8mb 64f
7:00 7 7 mph 1015.6mb 64f
6:00 5 5 mph 1015.8mb 65f
5:00 3 5 mph 1016mb 65f
4:00 7 7 mph 1016.4mb 65f
3:00 8 10 mph 1016.6mb 66f
2:00 9 14 mph 1016.7mb 66f
1:00 5 8 mph 1016.9mb 66f
12:00 8 14 mph 1017mb 66f
11:00 7 11 mph 1017.1mb 65f
10:00 6 10 mph 1016.8mb 64f
9:00 6 7 mph 1016.4mb 63f
8:00  -  1 mph 1016.2mb 62f
7:00 5 5 mph 1015.6mb 62f
6:00 5 6 mph 1015.1mb 62f
5:00 3 3 mph 1014.7mb 62f
4:00 2 3 mph 1014.8mb 62f
3:00 1 2 mph 1014.6mb 62f
2:00  -  1 mph 1014.7mb 62f
1:00  -  1 mph 1014.7mb 62f
12:00 1 2 mph 1014.7mb 62f
dim. 08/20 11:00 2 3 mph 1014.2mb 62f
10:00 2 2 mph 1014.1mb 62f
9:00 2 2 mph 1013.4mb 61f
8:00  -  0 mph 1012.9mb 62f
7:00 5 7 mph 1012.4mb 62f
6:00 7 9 mph 1012.3mb 63f
5:00 8 13 mph 1012.5mb 63f
4:00 6 10 mph 1012.9mb 63f
3:00 11 14 mph 1013.3mb 61f
2:00 15 18 mph 1013.6mb 61f
1:00 16 18 mph 1014mb 61f
12:00 18 21 mph 1014mb 60f
11:00 14 22 mph 1014.1mb 61f
10:00 8 13 mph 1014.1mb 61f
9:00 9 17 mph 1013.8mb 61f
8:00 9 11 mph 1013.8mb 60f
7:00 10 13 mph 1013.6mb 60f
6:00 8 15 mph 1013mb 61f
5:00 7 14 mph 1012.9mb 61f
4:00 6 8 mph 1013mb 61f
3:00 3 7 mph 1013.1mb 61f
2:00 6 8 mph 1013.5mb 61f
1:00 5 5 mph 1013.7mb 60f
12:00 1 1 mph 1013.8mb 60f
sam. 08/19 11:00 3 5 mph 1013.7mb 60f
10:00 2 2 mph 1013.6mb 60f
9:00 6 7 mph 1013.4mb 61f
8:00 7 8 mph 1013.3mb 61f
7:00 2 2 mph 1013.1mb 61f
6:00 2 3 mph 1013.2mb 61f
5:00 5 8 mph 1013.3mb 62f
4:00 9 14 mph 1013.7mb 61f
3:00 13 15 mph 1014.2mb 60f
2:00 11 15 mph 1014.5mb 60f
1:00 10 14 mph 1014.8mb 60f
12:00 2 3 mph 1015.2mb 60f
11:00 5 5 mph 1015.5mb 60f
10:00 6 6 mph 1015.4mb 59f
9:00 7 7 mph 1015.4mb 59f
8:00 6 8 mph 1015.3mb 59f
7:00 6 7 mph 1014.9mb 58f
6:00 9 10 mph 1014.5mb 58f
5:00 13 14 mph 1014mb 58f
4:00 11 11 mph 1014mb 58f
3:00 10 11 mph 1014.2mb 59f
2:00 9 11 mph 1014.6mb 59f
1:00 11 14 mph 1014.5mb 59f
12:00 14 16 mph 1014.7mb 59f
ven. 08/18 11:00 16 18 mph 1014.8mb 59f
10:00 21 23 mph 1014.8mb 60f
9:00 22 24 mph 1014.6mb 60f
8:00 24 26 mph 1014.5mb 60f
7:00 20 21 mph 1014.8mb 60f
6:00 20 20 mph 1015mb 60f
5:00 16 17 mph 1015.4mb 60f
4:00 13 14 mph 1016.1mb 60f
3:00 11 13 mph 1016.6mb 60f
2:00 11 13 mph 1017mb 60f
1:00 11 13 mph 1017mb 60f
12:00 13 13 mph 1017.2mb 59f
11:00 14 15 mph 1017.3mb 60f
10:00 15 16 mph 1017.1mb 59f
9:00 16 17 mph 1016.8mb 59f